地図

経路データ

SID SEASON NUMBER BASIN SUBBASIN NAME ISO_TIME NATURE LAT LON WMO_WIND WMO_PRES WMO_AGENCY TRACK_TYPE DIST2LAND LANDFALL IFLAG USA_AGENCY USA_ATCF_ID USA_LAT USA_LON USA_RECORD USA_STATUS USA_WIND USA_PRES USA_SSHS USA_R34_NE USA_R34_SE USA_R34_SW USA_R34_NW USA_R50_NE USA_R50_SE USA_R50_SW USA_R50_NW USA_R64_NE USA_R64_SE USA_R64_SW USA_R64_NW USA_POCI USA_ROCI USA_RMW USA_EYE TOKYO_LAT TOKYO_LON TOKYO_GRADE TOKYO_WIND TOKYO_PRES TOKYO_R50_DIR TOKYO_R50_LONG TOKYO_R50_SHORT TOKYO_R30_DIR TOKYO_R30_LONG TOKYO_R30_SHORT TOKYO_LAND CMA_LAT CMA_LON CMA_CAT CMA_WIND CMA_PRES HKO_LAT HKO_LON HKO_CAT HKO_WIND HKO_PRES NEWDELHI_LAT NEWDELHI_LON NEWDELHI_GRADE NEWDELHI_WIND NEWDELHI_PRES NEWDELHI_CI NEWDELHI_DP NEWDELHI_POCI REUNION_LAT REUNION_LON REUNION_TYPE REUNION_WIND REUNION_PRES REUNION_TNUM REUNION_CI REUNION_RMW REUNION_R34_NE REUNION_R34_SE REUNION_R34_SW REUNION_R34_NW REUNION_R50_NE REUNION_R50_SE REUNION_R50_SW REUNION_R50_NW REUNION_R64_NE REUNION_R64_SE REUNION_R64_SW REUNION_R64_NW BOM_LAT BOM_LON BOM_TYPE BOM_WIND BOM_PRES BOM_TNUM BOM_CI BOM_RMW BOM_R34_NE BOM_R34_SE BOM_R34_SW BOM_R34_NW BOM_R50_NE BOM_R50_SE BOM_R50_SW BOM_R50_NW BOM_R64_NE BOM_R64_SE BOM_R64_SW BOM_R64_NW BOM_ROCI BOM_POCI BOM_EYE BOM_POS_METHOD BOM_PRES_METHOD NADI_LAT NADI_LON NADI_CAT NADI_WIND NADI_PRES WELLINGTON_LAT WELLINGTON_LON WELLINGTON_WIND WELLINGTON_PRES DS824_LAT DS824_LON DS824_STAGE DS824_WIND DS824_PRES TD9636_LAT TD9636_LON TD9636_STAGE TD9636_WIND TD9636_PRES TD9635_LAT TD9635_LON TD9635_WIND TD9635_PRES TD9635_ROCI NEUMANN_LAT NEUMANN_LON NEUMANN_CLASS NEUMANN_WIND NEUMANN_PRES MLC_LAT MLC_LON MLC_CLASS MLC_WIND MLC_PRES USA_GUST BOM_GUST BOM_GUST_PER REUNION_GUST REUNION_GUST_PER USA_SEAHGT USA_SEARAD_NE USA_SEARAD_SE USA_SEARAD_SW USA_SEARAD_NW STORM_SPEED STORM_DIR
1970259S10059 1971 114 SI MM ANDREE 1970-09-16 06:00:00 TS -10.0000 59.0000 reunion main 1047 1016 _____O______O_ -1 -10.0000 59.0000 2 9.90000 -10.0000 59.0000 TC 25 7 270
1970259S10059 1971 114 SI MM ANDREE 1970-09-16 09:00:00 TS -10.0001 58.6450 main 1006 975 _____P______P_ -1 -10.0001 58.6450 2 -10.0001 58.6450 TC 27 7 270
1970259S10059 1971 114 SI MM ANDREE 1970-09-16 12:00:00 TS -10.0000 58.3000 reunion main 975 944 _____O______O_ -1 -10.0000 58.3000 99 9.90000 -10.0000 58.3000 TC 30 7 270
1970259S10059 1971 114 SI MM ANDREE 1970-09-16 15:00:00 TS -9.99991 57.9650 main 944 904 _____P______P_ -1 -9.99991 57.9650 99 -9.99991 57.9650 TC 30 7 270
1970259S10059 1971 114 SI MM ANDREE 1970-09-16 18:00:00 TS -10.0000 57.6000 reunion main 904 863 _____O______O_ -1 -10.0000 57.6000 99 9.90000 -10.0000 57.6000 TC 30 8 270
1970259S10059 1971 114 SI MM ANDREE 1970-09-16 21:00:00 TS -10.0001 57.1500 main 863 813 _____P______P_ -1 -10.0001 57.1500 99 -10.0001 57.1500 TC 30 9 270
1970259S10059 1971 114 SI MM ANDREE 1970-09-17 00:00:00 TS -10.0000 56.7000 reunion main 813 784 _____O______O_ -1 -10.0000 56.7000 99 9.90000 -10.0000 56.7000 TC 30 7 270
1970259S10059 1971 114 SI MM ANDREE 1970-09-17 03:00:00 TS -9.99951 56.4175 main 784 745 _____P______P_ -1 -9.99951 56.4175 99 -9.99951 56.4175 TC 30 7 270
1970259S10059 1971 114 SI MM ANDREE 1970-09-17 06:00:00 TS -10.0000 56.0000 reunion main 745 668 _____O______O_ -1 -10.0000 56.0000 2 9.90000 -10.0000 56.0000 TC 30 12 270
1970259S10059 1971 114 SI MM ANDREE 1970-09-17 09:00:00 TS -10.0076 55.1975 main 668 585 _____P______P_ -1 -10.0076 55.1975 2 -10.0076 55.1975 TC 30 18 270
1970259S10059 1971 114 SI MM ANDREE 1970-09-17 12:00:00 TS -10.0000 54.2000 reunion main 576 482 _____O______O_ -1 -10.0000 54.2000 99 9.90000 -10.0000 54.2000 TC 30 20 271
1970259S10059 1971 114 SI MM ANDREE 1970-09-17 15:00:00 TS -9.98002 53.1926 main 482 408 _____P______P_ -1 -9.98002 53.1926 99 -9.98002 53.1926 TC 30 20 273
1970259S10059 1971 114 SI MM ANDREE 1970-09-17 18:00:00 TS -9.90000 52.2000 reunion main 399 344 _____O______O_ -1 -9.90000 52.2000 99 9.90000 -9.90000 52.2000 TC 30 19 278
1970259S10059 1971 114 SI MM ANDREE 1970-09-17 21:00:00 TS -9.72972 51.3125 main 346 319 _____P______P_ -1 -9.72972 51.3125 99 -9.72972 51.3125 TC 30 17 283
1970259S10059 1971 114 SI MM ANDREE 1970-09-18 00:00:00 TS -9.50000 50.5000 reunion main 319 314 _____O______O_ -1 -9.50000 50.5000 99 9.90000 -9.50000 50.5000 TC 30 17 288
1970259S10059 1971 114 SI MM ANDREE 1970-09-18 03:00:00 TS -9.22002 49.6824 main 327 325 _____P______P_ -1 -9.22002 49.6824 99 -9.22002 49.6824 TC 30 16 289
1970259S10059 1971 114 SI MM ANDREE 1970-09-18 06:00:00 TS -9.00000 49.0000 reunion main 347 347 _____O______O_ -1 -9.00000 49.0000 2 9.90000 -9.00000 49.0000 TC 30 12 283
1970259S10059 1971 114 SI MM ANDREE 1970-09-18 09:00:00 TS -8.96976 48.5403 main 355 355 _____P______P_ -1 -8.96976 48.5403 2 -8.96976 48.5403 TC 30 8 270
1970259S10059 1971 114 SI MM ANDREE 1970-09-18 12:00:00 TS -9.00000 48.2000 reunion main 364 364 _____O______O_ -1 -9.00000 48.2000 99 9.90000 -9.00000 48.2000 TC 30 7 268
1970259S10059 1971 114 SI MM ANDREE 1970-09-18 15:00:00 TS -8.99494 47.8426 main 379 379 _____P______P_ -1 -8.99494 47.8426 99 -8.99494 47.8426 TC 30 7 278
1970259S10059 1971 114 SI MM ANDREE 1970-09-18 18:00:00 TS -8.90000 47.5000 reunion main 403 403 _____O______O_ -1 -8.90000 47.5000 99 9.90000 -8.90000 47.5000 TC 30 8 299
1970259S10059 1971 114 SI MM ANDREE 1970-09-18 21:00:00 TS -8.61495 47.1574 main 449 449 _____P______P_ -1 -8.61495 47.1574 99 -8.61495 47.1574 TC 30 9 311
1970259S10059 1971 114 SI MM ANDREE 1970-09-19 00:00:00 TS -8.30000 46.8000 reunion main 500 500 _____O______O_ -1 -8.30000 46.8000 99 9.90000 -8.30000 46.8000 TC 30 9 304
1970259S10059 1971 114 SI MM ANDREE 1970-09-19 03:00:00 TS -8.10760 46.4101 main 542 542 _____P______P_ -1 -8.10760 46.4101 99 -8.10760 46.4101 TC 27 8 291
1970259S10059 1971 114 SI MM ANDREE 1970-09-19 06:00:00 TS -8.00000 46.0000 reunion main 577 _____O______O_ -1 -8.00000 46.0000 2 9.90000 -8.00000 46.0000 TC 25 8 285

IBTrACS Databaseについて

本データベースは、米国NOAAが公開する1842年以降の世界の熱帯低気圧のベストトラックデータアーカイブInternational Best Track Archive for Climate Stewardship (IBTrACS)を、ウェブで閲覧しやすい形式に変換したものです。

最終更新日:2021-11-26